Página principal
METAR-TAF:

METAR-TAF

Aeroportos :

Aeroporto Internacional Modibo Keita

Bamako, Mali

latitude: 12-32N, longitude: 007-57W, altura: 380 m

Observação actual do tempo

O boletim foi feito há 22 minutos, às 12:30 UTC
Vento 4 kt de es-nordeste, variando entre norte e es-sudeste
Temperatura 32°C
Humidade 15%
Pressão 1016 hPa
Visibilidade 10 km ou mais
sem nuvens abaixo de 1500 metros e sem cumulonimbus

METAR: GABS 181230Z 07004KT 010V110 CAVOK 32/02 Q1016 NOSIG

Hora: 12:52 (12:52 UTC)

Previsão

O boletim foi feito há 1 hora e 22 minutos, às 11:30 UTC
Previsão válida de 18 às 12 UTC a 19 às 18 UTC
Vento 8 kt de es-nordeste
Visibilidade 10 km ou mais
sem nuvens abaixo de 1500 metros e sem cumulonimbus

TAF: GABS 181130Z 1812/1918 07008KT CAVOK

Observações e previsões do tempo de mais de 4000 aeroportos (mensagens METAR e TAF).

As estações disponíveis são os pontos amarelos e vermelhos sobre o mapa.

Mova o rato sobre o mapa para ver o nome da estação.

Depois clique no ponto para visualizar as observações e previsões meteorológicas.

Para alterar o mapa : clique nos botões verdes com uma cruz preta para aumentar o zoom; no botão verde com uma pitada de zoom; ou nas setas verdes para mapas adjacentes.


METAR-TAF: